Time;durP1;ratioP1;P1;durP2;ratioP2;P2;SDS_P1;SDS_P2;PMS_P1;PMS_P2;Temp;Humidity;BMP_temperature;BMP_pressure;BME280_temperature;BME280_humidity;BME280_pressure;Samples;Min_cycle;Max_cycle;Signal;HPM_P1;HPM_P2
2024/02/20 00:01:18;;;;;;;59.93;5.13;;;;;;;;;;5065429;28;20455;-69
2024/02/20 00:03:45;;;;;;;61.53;5.80;;;;;;;;;;5073527;28;20445;-70
2024/02/20 00:06:12;;;;;;;62.73;5.50;;;;;;;;;;5073445;28;20462;-69
2024/02/20 00:08:39;;;;;;;60.97;5.30;;;;;;;;;;5073438;28;20930;-70
2024/02/20 00:11:06;;;;;;;58.10;4.77;;;;;;;;;;5073299;28;20535;-69
2024/02/20 00:13:33;;;;;;;62.80;6.47;;;;;;;;;;5073211;28;20563;-70
2024/02/20 00:16:01;;;;;;;60.37;5.83;;;;;;;;;;5073401;28;21011;-69
2024/02/20 00:18:29;;;;;;;59.80;5.67;;;;;;;;;;5073243;28;20462;-70
2024/02/20 00:20:57;;;;;;;63.30;5.77;;;;;;;;;;5073427;28;20802;-69
2024/02/20 00:23:24;;;;;;;59.73;6.00;;;;;;;;;;5073086;28;20532;-70
2024/02/20 00:25:51;;;;;;;59.30;5.67;;;;;;;;;;5072886;28;20473;-70
2024/02/20 00:28:18;;;;;;;60.27;5.70;;;;;;;;;;5065152;28;20445;-70
2024/02/20 00:30:45;;;;;;;60.93;5.40;;;;;;;;;;5073309;28;20442;-70
2024/02/20 00:33:13;;;;;;;59.27;5.70;;;;;;;;;;5072911;28;20447;-70
2024/02/20 00:35:41;;;;;;;59.77;5.03;;;;;;;;;;5072042;28;20495;-70
2024/02/20 00:38:08;;;;;;;59.77;5.80;;;;;;;;;;5072731;28;20453;-70
2024/02/20 00:40:35;;;;;;;60.90;6.03;;;;;;;;;;5072868;28;20448;-69
2024/02/20 00:43:03;;;;;;;60.87;6.03;;;;;;;;;;5072793;28;20471;-69
2024/02/20 00:45:30;;;;;;;61.00;6.00;;;;;;;;;;5072901;28;20501;-69
2024/02/20 00:47:58;;;;;;;60.30;6.07;;;;;;;;;;5072661;28;20453;-70
2024/02/20 00:50:28;;;;;;;61.67;6.27;;;;;;;;;;5072667;28;20535;-69
2024/02/20 00:52:56;;;;;;;60.53;6.03;;;;;;;;;;5072241;28;20449;-69
2024/02/20 00:55:24;;;;;;;64.90;7.10;;;;;;;;;;5072684;28;20895;-69
2024/02/20 00:57:52;;;;;;;60.73;7.07;;;;;;;;;;5072593;28;20452;-69
2024/02/20 01:00:19;;;;;;;61.37;6.47;;;;;;;;;;5064457;28;20460;-70
2024/02/20 01:02:47;;;;;;;61.70;6.40;;;;;;;;;;5072369;28;20444;-70
2024/02/20 01:05:14;;;;;;;60.37;6.07;;;;;;;;;;5072033;28;20473;-69
2024/02/20 01:07:41;;;;;;;60.77;5.53;;;;;;;;;;5072567;28;20449;-69
2024/02/20 01:10:10;;;;;;;59.80;6.17;;;;;;;;;;5072188;28;20983;-70
2024/02/20 01:12:38;;;;;;;60.60;7.20;;;;;;;;;;5072128;28;20455;-69
2024/02/20 01:15:05;;;;;;;61.87;7.27;;;;;;;;;;5072170;28;20488;-70
2024/02/20 01:17:33;;;;;;;59.07;5.93;;;;;;;;;;5071970;28;20533;-70
2024/02/20 01:20:00;;;;;;;60.37;6.13;;;;;;;;;;5071957;28;20540;-69
2024/02/20 01:22:27;;;;;;;59.43;5.30;;;;;;;;;;5071805;28;20961;-70
2024/02/20 01:24:54;;;;;;;62.23;5.90;;;;;;;;;;5071937;28;20501;-70
2024/02/20 01:27:23;;;;;;;58.60;5.37;;;;;;;;;;5072053;28;20449;-69
2024/02/20 01:29:50;;;;;;;59.90;6.00;;;;;;;;;;5071770;28;20952;-69
2024/02/20 01:32:17;;;;;;;59.50;5.50;;;;;;;;;;5071488;28;20444;-70
2024/02/20 01:34:44;;;;;;;58.83;4.97;;;;;;;;;;5071746;28;20460;-70
2024/02/20 01:37:12;;;;;;;59.83;5.07;;;;;;;;;;5071895;28;20572;-70
2024/02/20 01:39:39;;;;;;;58.03;5.10;;;;;;;;;;5071870;28;20616;-70
2024/02/20 01:42:06;;;;;;;58.60;4.77;;;;;;;;;;5071599;28;20611;-69
2024/02/20 01:44:36;;;;;;;57.63;4.83;;;;;;;;;;5071889;28;20802;-70
2024/02/20 01:47:03;;;;;;;59.67;4.77;;;;;;;;;;5071531;28;20982;-70
2024/02/20 01:49:31;;;;;;;59.00;5.37;;;;;;;;;;5071885;28;20824;-70
2024/02/20 01:51:59;;;;;;;59.67;5.77;;;;;;;;;;5071724;28;20448;-70
2024/02/20 01:54:26;;;;;;;58.83;5.43;;;;;;;;;;5071536;28;20445;-69
2024/02/20 01:56:54;;;;;;;59.70;5.10;;;;;;;;;;5071519;28;20570;-70
2024/02/20 01:59:21;;;;;;;60.93;5.57;;;;;;;;;;5071346;28;20444;-69
2024/02/20 02:01:50;;;;;;;62.83;5.90;;;;;;;;;;5071778;28;20899;-69
2024/02/20 02:04:17;;;;;;;58.30;5.40;;;;;;;;;;5071305;28;20821;-69
2024/02/20 02:06:44;;;;;;;59.37;5.20;;;;;;;;;;5071425;28;20961;-70
2024/02/20 02:09:12;;;;;;;60.57;5.63;;;;;;;;;;5071266;28;20464;-70
2024/02/20 02:11:40;;;;;;;58.80;4.73;;;;;;;;;;5071529;28;20955;-69
2024/02/20 02:14:08;;;;;;;61.03;5.63;;;;;;;;;;5071048;28;20448;-69
2024/02/20 02:16:35;;;;;;;58.03;4.50;;;;;;;;;;5071229;28;21001;-69
2024/02/20 02:19:03;;;;;;;58.90;5.50;;;;;;;;;;5071352;28;20448;-70
2024/02/20 02:21:31;;;;;;;58.17;5.00;;;;;;;;;;5071275;28;20449;-70
2024/02/20 02:23:58;;;;;;;60.17;5.70;;;;;;;;;;5071166;28;20451;-71
2024/02/20 02:26:26;;;;;;;61.07;6.97;;;;;;;;;;5071289;28;20463;-69
2024/02/20 02:28:53;;;;;;;61.33;6.20;;;;;;;;;;5051973;28;20456;-69
2024/02/20 02:31:21;;;;;;;58.70;6.20;;;;;;;;;;5051302;28;20445;-69
2024/02/20 02:33:48;;;;;;;60.00;5.33;;;;;;;;;;5050924;28;20453;-70
2024/02/20 02:36:15;;;;;;;60.83;5.50;;;;;;;;;;5051189;28;20504;-69
2024/02/20 02:38:42;;;;;;;59.60;6.00;;;;;;;;;;5051107;28;20449;-69
2024/02/20 02:41:12;;;;;;;63.90;7.50;;;;;;;;;;5051034;28;20456;-69
2024/02/20 02:43:40;;;;;;;63.13;5.83;;;;;;;;;;5051170;28;20477;-69
2024/02/20 02:46:07;;;;;;;60.53;6.50;;;;;;;;;;5054938;28;20465;-69
2024/02/20 02:48:34;;;;;;;61.20;5.43;;;;;;;;;;5055713;28;20460;-70
2024/02/20 02:51:01;;;;;;;58.47;4.93;;;;;;;;;;5057727;28;20455;-70
2024/02/20 02:53:28;;;;;;;61.40;5.50;;;;;;;;;;5058274;28;20452;-70
2024/02/20 02:55:56;;;;;;;58.03;4.63;;;;;;;;;;5058663;28;20471;-70
2024/02/20 02:58:23;;;;;;;59.77;4.97;;;;;;;;;;5058189;28;20545;-69
2024/02/20 03:00:52;;;;;;;63.00;5.30;;;;;;;;;;5055054;28;20453;-70
2024/02/20 03:03:19;;;;;;;58.50;4.90;;;;;;;;;;5054609;28;20833;-70
2024/02/20 03:05:46;;;;;;;57.77;4.23;;;;;;;;;;5054572;28;20479;-69
2024/02/20 03:08:14;;;;;;;61.07;4.50;;;;;;;;;;5054797;28;20497;-70
2024/02/20 03:10:41;;;;;;;60.07;4.70;;;;;;;;;;5054556;28;20452;-69
2024/02/20 03:13:08;;;;;;;58.63;5.23;;;;;;;;;;5054521;28;20500;-69
2024/02/20 03:15:35;;;;;;;57.90;4.20;;;;;;;;;;5054386;28;20462;-70
2024/02/20 03:18:06;;;;;;;58.77;4.40;;;;;;;;;;5053843;28;20571;-70
2024/02/20 03:20:33;;;;;;;59.60;4.23;;;;;;;;;;5054854;28;20916;-70
2024/02/20 03:23:00;;;;;;;61.53;4.77;;;;;;;;;;5054305;28;20452;-71
2024/02/20 03:25:28;;;;;;;61.63;4.73;;;;;;;;;;5054453;28;20473;-69
2024/02/20 03:27:55;;;;;;;60.47;4.37;;;;;;;;;;5054292;28;20454;-70
2024/02/20 03:30:23;;;;;;;57.97;4.10;;;;;;;;;;5054237;28;20491;-69
2024/02/20 03:32:51;;;;;;;58.40;4.20;;;;;;;;;;5053950;28;20958;-69
2024/02/20 03:35:21;;;;;;;59.77;4.30;;;;;;;;;;5054008;28;20542;-69
2024/02/20 03:37:49;;;;;;;58.10;3.67;;;;;;;;;;5054123;28;20546;-70
2024/02/20 03:40:16;;;;;;;61.53;4.50;;;;;;;;;;5054200;28;20453;-70
2024/02/20 03:42:43;;;;;;;65.70;4.60;;;;;;;;;;5053887;28;20449;-70
2024/02/20 03:45:10;;;;;;;65.23;4.40;;;;;;;;;;5053647;28;20556;-70
2024/02/20 03:47:37;;;;;;;58.60;3.60;;;;;;;;;;5053928;28;20450;-70
2024/02/20 03:50:05;;;;;;;64.00;4.00;;;;;;;;;;5053884;28;20964;-70
2024/02/20 03:52:33;;;;;;;61.57;4.30;;;;;;;;;;5053760;28;20454;-69
2024/02/20 03:55:00;;;;;;;58.60;3.77;;;;;;;;;;5053819;28;20484;-69
2024/02/20 03:57:28;;;;;;;62.00;4.20;;;;;;;;;;5053750;28;20485;-70
2024/02/20 03:59:56;;;;;;;64.17;4.30;;;;;;;;;;5053488;28;20453;-69
2024/02/20 04:02:23;;;;;;;66.63;5.07;;;;;;;;;;5053702;28;20856;-69
2024/02/20 04:04:50;;;;;;;62.87;4.83;;;;;;;;;;5053708;28;20449;-69
2024/02/20 04:07:17;;;;;;;59.60;4.93;;;;;;;;;;5053641;28;20441;-69
2024/02/20 04:09:45;;;;;;;61.10;4.70;;;;;;;;;;5053453;28;20454;-69
2024/02/20 04:12:12;;;;;;;62.10;4.90;;;;;;;;;;5052647;28;20807;-69
2024/02/20 04:14:40;;;;;;;61.77;4.57;;;;;;;;;;5053620;28;20463;-70
2024/02/20 04:17:07;;;;;;;60.43;4.43;;;;;;;;;;5053477;28;20497;-70
2024/02/20 04:19:34;;;;;;;62.83;4.30;;;;;;;;;;5052994;28;20453;-70
2024/02/20 04:22:01;;;;;;;60.83;4.30;;;;;;;;;;5053322;28;20956;-69
2024/02/20 04:24:28;;;;;;;59.50;4.17;;;;;;;;;;5053171;28;20446;-70
2024/02/20 04:26:57;;;;;;;60.90;4.67;;;;;;;;;;5053137;28;20472;-70
2024/02/20 04:29:24;;;;;;;62.13;7.20;;;;;;;;;;5053166;28;20453;-69
2024/02/20 04:31:51;;;;;;;61.97;4.90;;;;;;;;;;5053319;28;20452;-70
2024/02/20 04:34:18;;;;;;;61.30;4.40;;;;;;;;;;5052897;28;20845;-70
2024/02/20 04:36:45;;;;;;;61.40;4.87;;;;;;;;;;5053045;28;20502;-70
2024/02/20 04:39:12;;;;;;;62.27;4.40;;;;;;;;;;5052735;28;20453;-70
2024/02/20 04:41:39;;;;;;;61.10;4.90;;;;;;;;;;5052928;28;21020;-69
2024/02/20 04:44:08;;;;;;;60.50;4.60;;;;;;;;;;5052797;28;20445;-69
2024/02/20 04:46:35;;;;;;;67.90;5.00;;;;;;;;;;5052754;28;20989;-70
2024/02/20 04:49:03;;;;;;;62.13;4.20;;;;;;;;;;5052820;28;20444;-70
2024/02/20 04:51:30;;;;;;;61.90;4.40;;;;;;;;;;5064541;28;20448;-69
2024/02/20 04:53:57;;;;;;;64.33;4.43;;;;;;;;;;5072473;28;20823;-70
2024/02/20 04:56:24;;;;;;;61.13;4.97;;;;;;;;;;5072553;28;20470;-70
2024/02/20 04:58:51;;;;;;;64.03;4.33;;;;;;;;;;5072634;28;20443;-69
2024/02/20 05:01:22;;;;;;;64.07;4.43;;;;;;;;;;5072654;28;20927;-69
2024/02/20 05:03:49;;;;;;;62.53;4.20;;;;;;;;;;5072416;28;20448;-69
2024/02/20 05:06:16;;;;;;;59.70;4.20;;;;;;;;;;5072224;28;20566;-70
2024/02/20 05:08:43;;;;;;;66.00;5.83;;;;;;;;;;5072285;28;20466;-69
2024/02/20 05:11:11;;;;;;;61.03;4.40;;;;;;;;;;5072329;28;20444;-70
2024/02/20 05:13:38;;;;;;;58.97;4.60;;;;;;;;;;5072038;28;20523;-70
2024/02/20 05:16:05;;;;;;;62.47;4.20;;;;;;;;;;5072230;28;20462;-70
2024/02/20 05:18:34;;;;;;;61.87;5.30;;;;;;;;;;5072114;28;20506;-69
2024/02/20 05:21:01;;;;;;;58.97;4.03;;;;;;;;;;5071970;28;20450;-71
2024/02/20 05:23:28;;;;;;;61.27;4.50;;;;;;;;;;5071922;28;20802;-70
2024/02/20 05:25:55;;;;;;;63.47;4.27;;;;;;;;;;5072181;28;20477;-70
2024/02/20 05:28:22;;;;;;;59.87;3.63;;;;;;;;;;5072015;28;20449;-70
2024/02/20 05:30:49;;;;;;;66.43;5.33;;;;;;;;;;5071903;28;20454;-71
2024/02/20 05:33:17;;;;;;;60.67;4.30;;;;;;;;;;5071643;28;20455;-70
2024/02/20 05:35:45;;;;;;;60.43;4.03;;;;;;;;;;5071694;28;20565;-70
2024/02/20 05:38:14;;;;;;;61.57;3.83;;;;;;;;;;5071946;28;20488;-70
2024/02/20 05:40:41;;;;;;;63.17;3.70;;;;;;;;;;5071925;28;20448;-70
2024/02/20 05:43:08;;;;;;;66.10;4.57;;;;;;;;;;5071604;28;20451;-69
2024/02/20 05:45:35;;;;;;;71.70;4.50;;;;;;;;;;5071872;28;20465;-71
2024/02/20 05:48:02;;;;;;;59.70;4.13;;;;;;;;;;5071695;28;20452;-71
2024/02/20 05:50:31;;;;;;;61.90;3.90;;;;;;;;;;5071949;28;20450;-71
2024/02/20 05:52:59;;;;;;;63.77;4.37;;;;;;;;;;5071579;28;20460;-71
2024/02/20 05:55:28;;;;;;;68.73;4.87;;;;;;;;;;5071660;28;20467;-71
2024/02/20 05:57:55;;;;;;;63.90;4.43;;;;;;;;;;5071742;28;20481;-71
2024/02/20 06:00:22;;;;;;;63.67;4.60;;;;;;;;;;5071198;28;20451;-70
2024/02/20 06:02:49;;;;;;;63.93;4.37;;;;;;;;;;5071435;28;20448;-70
2024/02/20 06:05:16;;;;;;;62.30;4.00;;;;;;;;;;5071437;28;20479;-71
2024/02/20 06:07:43;;;;;;;64.27;5.20;;;;;;;;;;5071621;28;20471;-71
2024/02/20 06:10:12;;;;;;;59.97;4.00;;;;;;;;;;5071575;28;20448;-70
2024/02/20 06:12:39;;;;;;;61.47;4.13;;;;;;;;;;5071499;28;20450;-70
2024/02/20 06:15:07;;;;;;;60.37;3.80;;;;;;;;;;5071065;28;20472;-71
2024/02/20 06:17:34;;;;;;;64.43;4.00;;;;;;;;;;5071521;28;20861;-71
2024/02/20 06:20:01;;;;;;;63.23;5.13;;;;;;;;;;5071411;28;20963;-70
2024/02/20 06:22:28;;;;;;;62.80;4.83;;;;;;;;;;5071462;28;20452;-71
2024/02/20 06:24:55;;;;;;;62.10;4.10;;;;;;;;;;5071271;28;20534;-71
2024/02/20 06:27:24;;;;;;;62.70;3.70;;;;;;;;;;5069728;28;20457;-71
2024/02/20 06:29:51;;;;;;;64.53;4.13;;;;;;;;;;5051325;28;20896;-71
2024/02/20 06:32:18;;;;;;;60.37;4.17;;;;;;;;;;5051226;28;20455;-71
2024/02/20 06:34:46;;;;;;;62.20;4.30;;;;;;;;;;5053800;28;20463;-70
2024/02/20 06:37:13;;;;;;;61.20;5.07;;;;;;;;;;5055171;28;21036;-70
2024/02/20 06:39:40;;;;;;;58.70;3.60;;;;;;;;;;5055172;28;20463;-70
2024/02/20 06:42:07;;;;;;;60.60;3.70;;;;;;;;;;5055100;28;20456;-70
2024/02/20 06:44:35;;;;;;;59.30;3.80;;;;;;;;;;5055070;28;20537;-70
2024/02/20 06:47:03;;;;;;;58.90;3.80;;;;;;;;;;5055337;28;20472;-71
2024/02/20 06:49:30;;;;;;;61.60;4.30;;;;;;;;;;5055042;28;20950;-70
2024/02/20 06:51:57;;;;;;;61.57;4.50;;;;;;;;;;5055264;28;20533;-71
2024/02/20 06:54:24;;;;;;;61.73;5.13;;;;;;;;;;5054782;28;20451;-70
2024/02/20 06:56:52;;;;;;;71.13;4.97;;;;;;;;;;5054996;28;21070;-71
2024/02/20 06:59:19;;;;;;;61.90;4.13;;;;;;;;;;5054998;28;20576;-71
2024/02/20 07:01:47;;;;;;;64.87;4.83;;;;;;;;;;5055019;28;20455;-71
2024/02/20 07:04:15;;;;;;;59.73;4.40;;;;;;;;;;5054683;28;20448;-70
2024/02/20 07:06:42;;;;;;;62.40;4.77;;;;;;;;;;5054844;28;20469;-70
2024/02/20 07:09:09;;;;;;;59.93;4.20;;;;;;;;;;5054755;28;20445;-71
2024/02/20 07:11:37;;;;;;;65.87;4.10;;;;;;;;;;5066383;28;20459;-70
2024/02/20 07:14:04;;;;;;;67.67;5.07;;;;;;;;;;5074488;28;20539;-70
2024/02/20 07:16:31;;;;;;;63.77;4.63;;;;;;;;;;5074676;28;20463;-70
2024/02/20 07:18:59;;;;;;;64.73;4.03;;;;;;;;;;5074688;28;20829;-70
2024/02/20 07:21:26;;;;;;;61.20;3.90;;;;;;;;;;5074514;28;20455;-70
2024/02/20 07:23:53;;;;;;;58.90;3.80;;;;;;;;;;5074264;28;20932;-70
2024/02/20 07:26:20;;;;;;;61.80;4.80;;;;;;;;;;5074369;28;20475;-70
2024/02/20 07:28:48;;;;;;;61.80;4.13;;;;;;;;;;5074641;28;20451;-70
2024/02/20 07:31:21;;;;;;;60.10;3.90;;;;;;;;;;5074457;28;20527;-71
2024/02/20 07:33:49;;;;;;;62.77;4.70;;;;;;;;;;5074168;28;20487;-70
2024/02/20 07:36:17;;;;;;;62.10;4.20;;;;;;;;;;5074205;28;20474;-71
2024/02/20 07:38:44;;;;;;;62.53;3.93;;;;;;;;;;5074044;28;20491;-71
2024/02/20 07:41:12;;;;;;;64.03;5.00;;;;;;;;;;5074484;28;20450;-70
2024/02/20 07:43:41;;;;;;;60.60;3.93;;;;;;;;;;5065809;28;20455;-70
2024/02/20 07:46:09;;;;;;;62.40;4.10;;;;;;;;;;5073975;28;20472;-70
2024/02/20 07:48:36;;;;;;;60.70;4.23;;;;;;;;;;5074051;28;20896;-70
2024/02/20 07:51:04;;;;;;;62.27;4.30;;;;;;;;;;5074209;28;20495;-70
2024/02/20 07:53:33;;;;;;;60.20;4.30;;;;;;;;;;5073930;28;20436;-72
2024/02/20 07:56:00;;;;;;;62.80;4.07;;;;;;;;;;5074361;28;20835;-71
2024/02/20 07:58:27;;;;;;;59.17;3.93;;;;;;;;;;5073925;28;20495;-71
2024/02/20 08:00:54;;;;;;;64.47;5.17;;;;;;;;;;5074384;28;20448;-70
2024/02/20 08:03:23;;;;;;;63.30;5.00;;;;;;;;;;5073599;28;20766;-71
2024/02/20 08:05:50;;;;;;;64.23;4.57;;;;;;;;;;5073612;28;20562;-71
2024/02/20 08:08:17;;;;;;;67.60;5.20;;;;;;;;;;5073757;28;20436;-71
2024/02/20 08:10:46;;;;;;;63.50;4.80;;;;;;;;;;5073759;28;20455;-71
2024/02/20 08:13:13;;;;;;;66.53;4.63;;;;;;;;;;5073270;28;20933;-71
2024/02/20 08:15:40;;;;;;;60.97;4.70;;;;;;;;;;5073589;28;20491;-70
2024/02/20 08:18:08;;;;;;;59.67;4.60;;;;;;;;;;5073801;28;20498;-70
2024/02/20 08:20:35;;;;;;;60.70;5.10;;;;;;;;;;5073596;28;20487;-70
2024/02/20 08:23:02;;;;;;;60.73;4.40;;;;;;;;;;5073389;28;20477;-71
2024/02/20 08:25:29;;;;;;;60.07;5.20;;;;;;;;;;5073221;28;20472;-71
2024/02/20 08:27:58;;;;;;;72.83;4.80;;;;;;;;;;5073347;28;20825;-70
2024/02/20 08:30:26;;;;;;;63.63;5.23;;;;;;;;;;5073256;28;20460;-70
2024/02/20 08:32:53;;;;;;;66.83;4.70;;;;;;;;;;5073100;28;21011;-70
2024/02/20 08:35:20;;;;;;;66.03;5.73;;;;;;;;;;5073008;28;20485;-70
2024/02/20 08:37:47;;;;;;;58.03;3.67;;;;;;;;;;5073015;28;21021;-70
2024/02/20 08:40:15;;;;;;;59.17;3.97;;;;;;;;;;5073061;28;20535;-70
2024/02/20 08:42:42;;;;;;;63.63;4.30;;;;;;;;;;5072868;28;20459;-70
2024/02/20 08:45:13;;;;;;;65.30;5.00;;;;;;;;;;5072792;28;20548;-70
2024/02/20 08:47:40;;;;;;;61.17;5.00;;;;;;;;;;5073058;28;20453;-70
2024/02/20 08:50:09;;;;;;;60.80;5.63;;;;;;;;;;5072988;28;20456;-70
2024/02/20 08:52:36;;;;;;;63.53;5.03;;;;;;;;;;5073107;28;20820;-70
2024/02/20 08:55:03;;;;;;;65.90;5.60;;;;;;;;;;5072828;28;20554;-71
2024/02/20 08:57:31;;;;;;;66.60;4.77;;;;;;;;;;5072033;28;20954;-71
2024/02/20 08:59:58;;;;;;;62.40;5.23;;;;;;;;;;5072674;28;20494;-70
2024/02/20 09:02:26;;;;;;;61.00;4.20;;;;;;;;;;5072709;28;20446;-70
2024/02/20 09:04:54;;;;;;;69.30;5.33;;;;;;;;;;5069245;28;20945;-70
2024/02/20 09:07:21;;;;;;;61.20;4.27;;;;;;;;;;5071291;28;20447;-70
2024/02/20 09:09:48;;;;;;;66.33;5.33;;;;;;;;;;5072512;28;20484;-71
2024/02/20 09:12:16;;;;;;;66.47;4.97;;;;;;;;;;5069639;28;20476;-70
2024/02/20 09:14:43;;;;;;;62.70;3.70;;;;;;;;;;5063522;28;20450;-71
2024/02/20 09:17:11;;;;;;;63.97;5.60;;;;;;;;;;5071631;28;20827;-70
2024/02/20 09:19:40;;;;;;;62.97;4.83;;;;;;;;;;5072024;28;20509;-70
2024/02/20 09:22:10;;;;;;;63.73;4.63;;;;;;;;;;5059728;28;20454;-69
2024/02/20 09:24:37;;;;;;;66.23;5.53;;;;;;;;;;5051364;28;20458;-69
2024/02/20 09:27:04;;;;;;;70.00;5.77;;;;;;;;;;5050908;28;20829;-70
2024/02/20 09:29:32;;;;;;;70.90;4.73;;;;;;;;;;5050388;28;20458;-70
2024/02/20 09:31:59;;;;;;;61.93;3.97;;;;;;;;;;5051409;28;20461;-69
2024/02/20 09:34:26;;;;;;;61.50;5.00;;;;;;;;;;5051629;28;20469;-70
2024/02/20 09:36:55;;;;;;;60.00;5.30;;;;;;;;;;5051185;28;20980;-70
2024/02/20 09:39:22;;;;;;;64.80;4.70;;;;;;;;;;5049132;28;20542;-70
2024/02/20 09:41:51;;;;;;;64.50;4.17;;;;;;;;;;5051922;28;20578;-69
2024/02/20 09:44:18;;;;;;;62.93;5.10;;;;;;;;;;5051980;28;20507;-70
2024/02/20 09:46:49;;;;;;;62.30;4.73;;;;;;;;;;5063711;28;20466;-69
2024/02/20 09:49:16;;;;;;;62.63;4.03;;;;;;;;;;5071815;28;20442;-71
2024/02/20 09:51:44;;;;;;;62.87;4.90;;;;;;;;;;5071757;28;20442;-70
2024/02/20 09:54:13;;;;;;;64.93;4.77;;;;;;;;;;5071561;28;20439;-70
2024/02/20 09:56:40;;;;;;;65.40;4.30;;;;;;;;;;5071785;28;20478;-69
2024/02/20 09:59:07;;;;;;;64.83;4.30;;;;;;;;;;5071474;28;21059;-69
2024/02/20 10:01:36;;;;;;;64.00;4.50;;;;;;;;;;5071669;28;20457;-69
2024/02/20 10:04:04;;;;;;;63.47;4.50;;;;;;;;;;5071520;28;20889;-70
2024/02/20 10:06:31;;;;;;;67.33;4.23;;;;;;;;;;5071360;28;20463;-69
2024/02/20 10:08:59;;;;;;;61.80;4.03;;;;;;;;;;5070674;28;20549;-70
2024/02/20 10:11:27;;;;;;;59.93;3.57;;;;;;;;;;5071552;28;20454;-70
2024/02/20 10:13:57;;;;;;;60.13;3.90;;;;;;;;;;5071247;28;20954;-70
2024/02/20 10:16:24;;;;;;;62.10;4.60;;;;;;;;;;5071409;28;20915;-70
2024/02/20 10:18:58;;;;;;;61.70;4.40;;;;;;;;;;5071185;28;20479;-70
2024/02/20 10:21:25;;;;;;;66.30;4.70;;;;;;;;;;5071419;28;20444;-69
2024/02/20 10:24:01;;;;;;;63.80;4.80;;;;;;;;;;5071388;28;20816;-70
2024/02/20 10:26:33;;;;;;;63.37;4.47;;;;;;;;;;5071351;28;20471;-70
2024/02/20 10:29:01;;;;;;;64.67;4.60;;;;;;;;;;5071372;28;20817;-70
2024/02/20 10:31:29;;;;;;;64.37;5.20;;;;;;;;;;5071143;28;20903;-70
2024/02/20 10:33:57;;;;;;;60.90;4.40;;;;;;;;;;5071223;28;20929;-70
2024/02/20 10:36:24;;;;;;;61.87;4.20;;;;;;;;;;5071237;28;20847;-70
2024/02/20 10:38:52;;;;;;;68.53;4.77;;;;;;;;;;5071250;28;20475;-70
2024/02/20 10:41:22;;;;;;;62.23;4.30;;;;;;;;;;5071037;28;20531;-71
2024/02/20 10:43:50;;;;;;;63.77;4.53;;;;;;;;;;5062926;28;20448;-71
2024/02/20 10:46:17;;;;;;;65.50;4.60;;;;;;;;;;5071004;28;20459;-71
2024/02/20 10:48:46;;;;;;;63.40;4.50;;;;;;;;;;5071160;28;20440;-70
2024/02/20 10:51:14;;;;;;;59.10;4.63;;;;;;;;;;5071244;28;20967;-71
2024/02/20 10:53:41;;;;;;;59.30;4.10;;;;;;;;;;5070897;28;20830;-71
2024/02/20 10:56:09;;;;;;;61.73;4.37;;;;;;;;;;5070960;28;20469;-70
2024/02/20 10:58:39;;;;;;;61.67;4.70;;;;;;;;;;5070803;28;20483;-70
2024/02/20 11:01:09;;;;;;;61.90;4.43;;;;;;;;;;5071633;28;20517;-72
2024/02/20 11:03:37;;;;;;;62.87;4.87;;;;;;;;;;5070862;28;20452;-70
2024/02/20 11:06:04;;;;;;;64.37;4.83;;;;;;;;;;5070938;28;20835;-70
2024/02/20 11:08:31;;;;;;;61.70;4.13;;;;;;;;;;5070823;28;20448;-71
2024/02/20 11:11:09;;;;;;;64.23;4.73;;;;;;;;;;5070839;28;20809;-70
2024/02/20 11:13:36;;;;;;;62.67;4.03;;;;;;;;;;5070874;28;20458;-70
2024/02/20 11:16:11;;;;;;;66.17;4.87;;;;;;;;;;5070959;28;20471;-71
2024/02/20 11:18:38;;;;;;;61.37;4.10;;;;;;;;;;5070552;28;21017;-71
2024/02/20 11:21:06;;;;;;;65.13;4.73;;;;;;;;;;5073722;28;20443;-70
2024/02/20 11:23:35;;;;;;;61.37;4.10;;;;;;;;;;5074155;28;20795;-70
2024/02/20 11:26:09;;;;;;;61.63;4.10;;;;;;;;;;5074585;28;20609;-70
2024/02/20 11:28:36;;;;;;;62.20;4.67;;;;;;;;;;5074376;28;20458;-71
2024/02/20 11:31:04;;;;;;;64.43;3.90;;;;;;;;;;5074445;28;20469;-70
2024/02/20 11:33:33;;;;;;;60.07;3.90;;;;;;;;;;5073902;28;20451;-71
2024/02/20 11:36:00;;;;;;;59.80;3.80;;;;;;;;;;5074049;28;20469;-71
2024/02/20 11:38:28;;;;;;;61.90;3.90;;;;;;;;;;5073850;28;20448;-70
2024/02/20 11:40:56;;;;;;;64.67;4.63;;;;;;;;;;5074272;28;20816;-70
2024/02/20 11:43:25;;;;;;;63.80;3.73;;;;;;;;;;5074014;28;20830;-70
2024/02/20 11:45:58;;;;;;;62.30;4.00;;;;;;;;;;5065968;28;20478;-71
2024/02/20 11:48:26;;;;;;;63.10;4.17;;;;;;;;;;5073738;28;20804;-71
2024/02/20 11:50:57;;;;;;;60.53;3.93;;;;;;;;;;5074505;28;20448;-70
2024/02/20 11:53:24;;;;;;;63.43;4.90;;;;;;;;;;5073924;28;20448;-71
2024/02/20 11:55:53;;;;;;;59.90;3.97;;;;;;;;;;5073824;28;20980;-71
2024/02/20 11:58:21;;;;;;;62.90;4.23;;;;;;;;;;5073787;28;20546;-69
2024/02/20 12:00:49;;;;;;;63.87;3.80;;;;;;;;;;5073576;28;20483;-72
2024/02/20 12:03:24;;;;;;;62.93;3.40;;;;;;;;;;5073358;28;20456;-69
2024/02/20 12:05:51;;;;;;;60.70;3.37;;;;;;;;;;5073720;28;20478;-70
2024/02/20 12:08:19;;;;;;;59.07;3.53;;;;;;;;;;5073711;28;20456;-70
2024/02/20 12:10:47;;;;;;;60.73;3.73;;;;;;;;;;5073557;28;21011;-71
2024/02/20 12:13:15;;;;;;;56.87;2.93;;;;;;;;;;5073599;28;20490;-70
2024/02/20 12:15:43;;;;;;;60.93;3.90;;;;;;;;;;5073277;28;20847;-70
2024/02/20 12:18:11;;;;;;;59.07;4.30;;;;;;;;;;5073597;28;20554;-71
2024/02/20 12:20:38;;;;;;;60.40;3.90;;;;;;;;;;5073407;28;20488;-70
2024/02/20 12:23:05;;;;;;;59.60;3.40;;;;;;;;;;5073223;28;20446;-71
2024/02/20 12:25:34;;;;;;;62.50;3.80;;;;;;;;;;5073258;28;20924;-71
2024/02/20 12:28:02;;;;;;;61.10;3.63;;;;;;;;;;5073023;28;20459;-70
2024/02/20 12:30:29;;;;;;;62.90;3.90;;;;;;;;;;5073363;28;20447;-70
2024/02/20 12:32:56;;;;;;;59.23;3.37;;;;;;;;;;5072327;28;20448;-70
2024/02/20 12:35:23;;;;;;;60.73;4.03;;;;;;;;;;5073038;28;20583;-71
2024/02/20 12:37:50;;;;;;;60.20;3.60;;;;;;;;;;5073098;28;20873;-70
2024/02/20 12:40:19;;;;;;;60.60;3.60;;;;;;;;;;5073067;28;20479;-70
2024/02/20 12:42:48;;;;;;;59.20;3.93;;;;;;;;;;5073209;28;20548;-70
2024/02/20 12:45:15;;;;;;;59.80;3.80;;;;;;;;;;5073020;28;20490;-72
2024/02/20 12:47:42;;;;;;;62.23;3.67;;;;;;;;;;5072892;28;20568;-71
2024/02/20 12:50:09;;;;;;;61.70;4.20;;;;;;;;;;5072940;28;20440;-71
2024/02/20 12:52:37;;;;;;;65.10;4.93;;;;;;;;;;5072634;28;20448;-70
2024/02/20 12:55:04;;;;;;;60.20;3.80;;;;;;;;;;5072511;28;20467;-70
2024/02/20 12:57:32;;;;;;;64.23;3.57;;;;;;;;;;5072807;28;20456;-70
2024/02/20 13:00:01;;;;;;;63.47;4.30;;;;;;;;;;5072751;28;20495;-70
2024/02/20 13:02:28;;;;;;;62.03;3.70;;;;;;;;;;5072339;28;20453;-70
2024/02/20 13:04:55;;;;;;;58.00;3.17;;;;;;;;;;5072569;28;20443;-70
2024/02/20 13:07:22;;;;;;;58.67;3.37;;;;;;;;;;5072424;28;20475;-71
2024/02/20 13:09:51;;;;;;;59.13;3.80;;;;;;;;;;5072319;28;20494;-70
2024/02/20 13:12:18;;;;;;;59.87;3.47;;;;;;;;;;5072231;28;20471;-71
2024/02/20 13:14:47;;;;;;;59.40;3.63;;;;;;;;;;5072360;28;20517;-71
2024/02/20 13:17:16;;;;;;;60.83;3.20;;;;;;;;;;5072361;28;20493;-70
2024/02/20 13:19:43;;;;;;;58.50;3.70;;;;;;;;;;5072123;28;20527;-71
2024/02/20 13:22:11;;;;;;;58.63;3.37;;;;;;;;;;5071958;28;20530;-70
2024/02/20 13:24:39;;;;;;;57.53;3.00;;;;;;;;;;5072283;28;20452;-71
2024/02/20 13:27:08;;;;;;;57.40;3.50;;;;;;;;;;5072467;28;20802;-71
2024/02/20 13:29:35;;;;;;;59.27;3.70;;;;;;;;;;5072052;28;20447;-71
2024/02/20 13:32:03;;;;;;;60.17;4.37;;;;;;;;;;5071897;28;20535;-72
2024/02/20 13:34:31;;;;;;;60.13;3.83;;;;;;;;;;5071684;28;20459;-72
2024/02/20 13:36:59;;;;;;;62.80;3.53;;;;;;;;;;5071790;28;20464;-69
2024/02/20 13:39:26;;;;;;;58.60;3.40;;;;;;;;;;5071966;28;20506;-72
2024/02/20 13:41:53;;;;;;;60.10;3.90;;;;;;;;;;5071821;28;20948;-72
2024/02/20 13:44:21;;;;;;;61.50;4.23;;;;;;;;;;5071413;28;20459;-72
2024/02/20 13:46:49;;;;;;;58.93;4.07;;;;;;;;;;5071756;28;20475;-72
2024/02/20 13:49:22;;;;;;;63.03;4.37;;;;;;;;;;5071687;28;20448;-71
2024/02/20 13:51:51;;;;;;;60.83;4.77;;;;;;;;;;5071899;28;20448;-71
2024/02/20 13:54:19;;;;;;;62.47;4.30;;;;;;;;;;5071709;28;20794;-71
2024/02/20 13:56:46;;;;;;;58.37;3.47;;;;;;;;;;5071697;28;20477;-69
2024/02/20 13:59:13;;;;;;;58.17;4.10;;;;;;;;;;5071616;28;20449;-71
2024/02/20 14:01:41;;;;;;;58.40;4.30;;;;;;;;;;5071597;28;20458;-71
2024/02/20 14:04:08;;;;;;;61.97;5.00;;;;;;;;;;5071388;28;20497;-71
2024/02/20 14:06:35;;;;;;;63.10;4.57;;;;;;;;;;5071651;28;21018;-71
2024/02/20 14:09:04;;;;;;;60.37;4.00;;;;;;;;;;5071729;28;20448;-71
2024/02/20 14:11:31;;;;;;;59.70;4.50;;;;;;;;;;5071503;28;20924;-71
2024/02/20 14:13:58;;;;;;;63.17;4.33;;;;;;;;;;5071443;28;20786;-71
2024/02/20 14:16:25;;;;;;;58.97;4.10;;;;;;;;;;5071318;28;20466;-71
2024/02/20 14:18:52;;;;;;;60.40;4.13;;;;;;;;;;5071611;28;20538;-71
2024/02/20 14:21:19;;;;;;;58.97;3.67;;;;;;;;;;5071673;28;20488;-71
2024/02/20 14:23:47;;;;;;;61.67;4.87;;;;;;;;;;5071309;28;20892;-70
2024/02/20 14:26:15;;;;;;;59.67;4.20;;;;;;;;;;5071261;28;20983;-70
2024/02/20 14:28:42;;;;;;;62.87;4.60;;;;;;;;;;5071136;28;20447;-71
2024/02/20 14:31:10;;;;;;;61.80;4.43;;;;;;;;;;5071170;28;20808;-71
2024/02/20 14:33:37;;;;;;;61.70;4.30;;;;;;;;;;5071139;28;20447;-71